Clearwater, British Columbia

Past 24 Hour Conditions

Date / Time
(PDT)
Conditions Temp
(°F)
Humidity
(%)
Dew Point
(°F)
Wind
(mph)
Pressure
(inches)
Visibility
(miles)
03 September 2015
14:00 N/A 57   46 37 WSW 4 29.9 N/A
13:00 N/A 55 53 38 E 4 29.9 N/A
12:00 N/A 55 57 40 ESE 4 29.9 N/A
11:00 N/A 51 66 40 ESE 3 29.9 N/A
10:00 N/A 47 79 41 ENE 2 29.9 N/A
9:00 N/A 46 84 42 N 2 29.9 N/A
8:00 N/A 45 88 41 calm 29.9 N/A
7:00 N/A 44   88 41 calm 29.9 N/A
6:00 N/A 44   88 40 ENE 2 29.9 N/A
5:00 N/A 44   89 41 ENE 2 29.9 N/A
4:00 N/A 44   85 40 NE 2 29.9 N/A
3:00 N/A 46 83 41 N 3 29.9 N/A
2:00 N/A 46 80 40 NE 3 29.9 N/A
1:00 N/A 46 80 40 NNW 3 29.9 N/A
00:00 N/A 46 84 41 NNW 2 29.9 N/A
02 September 2015
23:00 N/A 46 84 41 calm 29.9 N/A
22:00 N/A 48 77 41 NNW 3 29.8 N/A
21:00 N/A 49 74 41 NE 3 29.8 N/A
20:00 N/A 50 72 41 NNW 2 29.8 N/A
19:00 N/A 54 59 40 ENE 5 29.8 N/A
18:00 N/A 55 52 38 E 11 gust 18 29.8 N/A
17:00 N/A 56 55 40 NNE 7 29.8 N/A
16:00 N/A 56 56 40 E 5 29.8 N/A
15:00 N/A 54 60 40 E 3 29.8 N/A
14:00 N/A 51 79 45 NW 2 29.8 N/A
N/A Not available
↑ Highest temperature
↓ Lowest temperature

If you require additional historical weather information, please visit Climate Data Online.

What we are doing

Date modified: